KLKU

Louisa County / Freeman Field Airport

Louisa, Virginia, USA
METAR KLKU 221335Z AUTO 22005KT 10SM CLR 05/01 A3040 RMK AO2 T00460010
Observed Flight Rules
Oct-22 @ 13:35 UTC (45 minutes ago) Visual Flight Rules
Wind Visibility Clouds
220° at 5 knots 10 miles
  • Clear skies
Temperatures Readings
Current 5°C / 41°F
Dewpoint 1°C / 34°F
Humidity 76%
Altimeter 30.4" Hg
Pressure 1029 hPa
Elevation 150
METAR KLKU 221335Z AUTO 22005KT 10SM CLR 05/01 A3040 RMK AO2 T00460010
Observed Flight Rules
Oct-22 @ 13:35 UTC
(45 minutes ago)
VFR
Wind Visibility
220° at 5 knots 10 miles
Clouds
  • Clear skies
Temperature Dewpoint
5°C / 41°F 1°C / 34°F
Humidity Altimeter Pressure
76% 30.4" Hg 1029 hPa